KFRH/FRH METAR and TAF weather

Enter ICAO airport designator
Station Type Date Time Source
KFRH METAR 2024/02/26 18:55 UTC NOAA

KFRH 261855Z AUTO 20008KT 10SM CLR 21/02 A2983 RMK AO1


Station Type Date Time Source
KFRH Decoded METAR 2024/02/26 18:55 UTC NOAA

Station name not available
Feb 26, 2024 - 01:55 PM EST / 2024.02.26 1855 UTC
Wind: from the SSW (200 degrees) at 9 MPH (8 KT):0
Visibility: 10 mile(s):0
Sky conditions: clear
Temperature: 69 F (21 C)
Dew Point: 35 F (2 C)
Relative Humidity: 28%
Pressure (altimeter): 29.83 in. Hg (1010 hPa)
ob: KFRH 261855Z AUTO 20008KT 10SM CLR 21/02 A2983 RMK AO1
cycle: 19

Station Type Date Time Source
KFRH TAF UTC NOAA

Error!

Example: see airport list